sensor_id;sensor_type;location;lat;lon;timestamp;P1;durP1;ratioP1;P2;durP2;ratioP2
21661;SDS011;10992;48.170;8.596;2023-05-07T00:01:36;6.78;;;5.47;;
21661;SDS011;10992;48.170;8.596;2023-05-07T00:04:03;7.65;;;5.90;;
21661;SDS011;10992;48.170;8.596;2023-05-07T00:06:31;7.35;;;5.80;;
21661;SDS011;10992;48.170;8.596;2023-05-07T00:08:58;9.02;;;5.78;;
21661;SDS011;10992;48.170;8.596;2023-05-07T00:11:27;6.65;;;5.93;;
21661;SDS011;10992;48.170;8.596;2023-05-07T00:13:54;7.55;;;6.28;;
21661;SDS011;10992;48.170;8.596;2023-05-07T00:16:21;7.55;;;5.97;;
21661;SDS011;10992;48.170;8.596;2023-05-07T00:18:48;6.43;;;5.70;;
21661;SDS011;10992;48.170;8.596;2023-05-07T00:21:15;7.75;;;5.53;;
21661;SDS011;10992;48.170;8.596;2023-05-07T00:23:42;10.27;;;6.03;;
21661;SDS011;10992;48.170;8.596;2023-05-07T00:26:09;6.35;;;5.57;;
21661;SDS011;10992;48.170;8.596;2023-05-07T00:28:38;8.38;;;5.75;;
21661;SDS011;10992;48.170;8.596;2023-05-07T00:31:05;8.63;;;5.43;;
21661;SDS011;10992;48.170;8.596;2023-05-07T00:33:32;7.25;;;5.40;;
21661;SDS011;10992;48.170;8.596;2023-05-07T00:35:59;9.25;;;5.20;;
21661;SDS011;10992;48.170;8.596;2023-05-07T00:38:28;6.22;;;5.45;;
21661;SDS011;10992;48.170;8.596;2023-05-07T00:40:55;6.40;;;5.00;;
21661;SDS011;10992;48.170;8.596;2023-05-07T00:43:22;6.10;;;5.07;;
21661;SDS011;10992;48.170;8.596;2023-05-07T00:45:49;4.88;;;4.43;;
21661;SDS011;10992;48.170;8.596;2023-05-07T00:48:16;5.40;;;4.70;;
21661;SDS011;10992;48.170;8.596;2023-05-07T00:50:44;8.07;;;4.88;;
21661;SDS011;10992;48.170;8.596;2023-05-07T00:53:12;5.60;;;4.35;;
21661;SDS011;10992;48.170;8.596;2023-05-07T00:55:39;7.30;;;5.43;;
21661;SDS011;10992;48.170;8.596;2023-05-07T00:58:06;5.25;;;4.60;;
21661;SDS011;10992;48.170;8.596;2023-05-07T01:00:33;8.07;;;5.53;;
21661;SDS011;10992;48.170;8.596;2023-05-07T01:03:00;6.50;;;5.38;;
21661;SDS011;10992;48.170;8.596;2023-05-07T01:05:28;7.57;;;5.95;;
21661;SDS011;10992;48.170;8.596;2023-05-07T01:07:57;7.00;;;5.85;;
21661;SDS011;10992;48.170;8.596;2023-05-07T01:10:24;8.13;;;5.43;;
21661;SDS011;10992;48.170;8.596;2023-05-07T01:12:52;7.88;;;5.47;;
21661;SDS011;10992;48.170;8.596;2023-05-07T01:15:20;8.27;;;5.85;;
21661;SDS011;10992;48.170;8.596;2023-05-07T01:17:47;7.32;;;5.43;;
21661;SDS011;10992;48.170;8.596;2023-05-07T01:20:21;6.90;;;5.35;;
21661;SDS011;10992;48.170;8.596;2023-05-07T01:22:51;5.70;;;5.00;;
21661;SDS011;10992;48.170;8.596;2023-05-07T01:25:18;6.18;;;5.13;;
21661;SDS011;10992;48.170;8.596;2023-05-07T01:27:49;7.03;;;5.30;;
21661;SDS011;10992;48.170;8.596;2023-05-07T01:30:18;6.38;;;5.45;;
21661;SDS011;10992;48.170;8.596;2023-05-07T01:32:49;8.93;;;5.28;;
21661;SDS011;10992;48.170;8.596;2023-05-07T01:35:20;9.20;;;5.55;;
21661;SDS011;10992;48.170;8.596;2023-05-07T01:37:49;8.38;;;5.75;;
21661;SDS011;10992;48.170;8.596;2023-05-07T01:40:16;6.35;;;5.40;;
21661;SDS011;10992;48.170;8.596;2023-05-07T01:42:43;7.90;;;5.28;;
21661;SDS011;10992;48.170;8.596;2023-05-07T01:45:12;5.18;;;4.68;;
21661;SDS011;10992;48.170;8.596;2023-05-07T01:47:39;5.63;;;4.65;;
21661;SDS011;10992;48.170;8.596;2023-05-07T01:50:06;5.88;;;4.80;;
21661;SDS011;10992;48.170;8.596;2023-05-07T01:52:37;6.32;;;5.55;;
21661;SDS011;10992;48.170;8.596;2023-05-07T01:55:05;6.13;;;5.15;;
21661;SDS011;10992;48.170;8.596;2023-05-07T01:57:32;6.53;;;5.50;;
21661;SDS011;10992;48.170;8.596;2023-05-07T01:59:59;6.47;;;5.53;;
21661;SDS011;10992;48.170;8.596;2023-05-07T02:02:26;5.55;;;4.95;;
21661;SDS011;10992;48.170;8.596;2023-05-07T02:04:56;6.00;;;5.22;;
21661;SDS011;10992;48.170;8.596;2023-05-07T02:07:24;6.85;;;4.97;;
21661;SDS011;10992;48.170;8.596;2023-05-07T02:09:51;8.15;;;6.05;;
21661;SDS011;10992;48.170;8.596;2023-05-07T02:12:18;6.15;;;5.55;;
21661;SDS011;10992;48.170;8.596;2023-05-07T02:14:45;7.57;;;6.13;;
21661;SDS011;10992;48.170;8.596;2023-05-07T02:17:13;5.93;;;5.32;;
21661;SDS011;10992;48.170;8.596;2023-05-07T02:19:40;6.43;;;5.70;;
21661;SDS011;10992;48.170;8.596;2023-05-07T02:22:10;8.27;;;6.53;;
21661;SDS011;10992;48.170;8.596;2023-05-07T02:24:38;7.50;;;5.78;;
21661;SDS011;10992;48.170;8.596;2023-05-07T02:27:04;7.00;;;5.60;;
21661;SDS011;10992;48.170;8.596;2023-05-07T02:29:32;7.95;;;6.40;;
21661;SDS011;10992;48.170;8.596;2023-05-07T02:31:58;7.20;;;6.10;;
21661;SDS011;10992;48.170;8.596;2023-05-07T02:34:26;6.97;;;5.90;;
21661;SDS011;10992;48.170;8.596;2023-05-07T02:36:53;6.93;;;5.78;;
21661;SDS011;10992;48.170;8.596;2023-05-07T02:39:23;7.97;;;6.20;;
21661;SDS011;10992;48.170;8.596;2023-05-07T02:41:50;8.05;;;5.93;;
21661;SDS011;10992;48.170;8.596;2023-05-07T02:44:16;7.85;;;5.78;;
21661;SDS011;10992;48.170;8.596;2023-05-07T02:46:47;6.20;;;5.60;;
21661;SDS011;10992;48.170;8.596;2023-05-07T02:49:14;7.60;;;6.75;;
21661;SDS011;10992;48.170;8.596;2023-05-07T02:51:41;8.38;;;7.00;;
21661;SDS011;10992;48.170;8.596;2023-05-07T02:54:15;8.55;;;6.28;;
21661;SDS011;10992;48.170;8.596;2023-05-07T02:56:44;8.75;;;7.00;;
21661;SDS011;10992;48.170;8.596;2023-05-07T02:59:11;9.43;;;7.30;;
21661;SDS011;10992;48.170;8.596;2023-05-07T03:01:40;7.95;;;6.45;;
21661;SDS011;10992;48.170;8.596;2023-05-07T03:04:10;8.35;;;7.32;;
21661;SDS011;10992;48.170;8.596;2023-05-07T03:06:38;8.50;;;6.90;;
21661;SDS011;10992;48.170;8.596;2023-05-07T03:09:05;7.82;;;6.20;;
21661;SDS011;10992;48.170;8.596;2023-05-07T03:11:31;6.53;;;5.93;;
21661;SDS011;10992;48.170;8.596;2023-05-07T03:13:59;8.07;;;6.53;;
21661;SDS011;10992;48.170;8.596;2023-05-07T03:16:25;7.40;;;6.70;;
21661;SDS011;10992;48.170;8.596;2023-05-07T03:18:53;13.98;;;6.95;;
21661;SDS011;10992;48.170;8.596;2023-05-07T03:21:20;7.80;;;7.00;;
21661;SDS011;10992;48.170;8.596;2023-05-07T03:23:47;8.60;;;7.25;;
21661;SDS011;10992;48.170;8.596;2023-05-07T03:26:14;7.30;;;6.15;;
21661;SDS011;10992;48.170;8.596;2023-05-07T03:28:43;8.80;;;7.05;;
21661;SDS011;10992;48.170;8.596;2023-05-07T03:31:12;8.05;;;6.70;;
21661;SDS011;10992;48.170;8.596;2023-05-07T03:33:50;8.25;;;6.47;;
21661;SDS011;10992;48.170;8.596;2023-05-07T03:36:18;10.63;;;6.93;;
21661;SDS011;10992;48.170;8.596;2023-05-07T03:38:46;7.80;;;7.00;;
21661;SDS011;10992;48.170;8.596;2023-05-07T03:41:17;10.45;;;7.38;;
21661;SDS011;10992;48.170;8.596;2023-05-07T03:43:45;9.23;;;6.93;;
21661;SDS011;10992;48.170;8.596;2023-05-07T03:46:12;8.30;;;7.03;;
21661;SDS011;10992;48.170;8.596;2023-05-07T03:48:40;8.00;;;7.15;;
21661;SDS011;10992;48.170;8.596;2023-05-07T03:51:08;7.80;;;7.00;;
21661;SDS011;10992;48.170;8.596;2023-05-07T03:53:35;8.98;;;7.20;;
21661;SDS011;10992;48.170;8.596;2023-05-07T03:56:03;7.65;;;6.95;;
21661;SDS011;10992;48.170;8.596;2023-05-07T03:58:34;8.63;;;7.03;;
21661;SDS011;10992;48.170;8.596;2023-05-07T04:01:06;11.13;;;8.65;;
21661;SDS011;10992;48.170;8.596;2023-05-07T04:03:34;11.48;;;8.85;;
21661;SDS011;10992;48.170;8.596;2023-05-07T04:06:02;10.18;;;7.88;;
21661;SDS011;10992;48.170;8.596;2023-05-07T04:08:31;11.13;;;8.43;;
21661;SDS011;10992;48.170;8.596;2023-05-07T04:10:59;8.15;;;7.28;;
21661;SDS011;10992;48.170;8.596;2023-05-07T04:13:30;8.80;;;7.32;;
21661;SDS011;10992;48.170;8.596;2023-05-07T04:16:00;8.02;;;7.13;;
21661;SDS011;10992;48.170;8.596;2023-05-07T04:18:28;7.90;;;7.10;;
21661;SDS011;10992;48.170;8.596;2023-05-07T04:20:55;9.23;;;7.25;;
21661;SDS011;10992;48.170;8.596;2023-05-07T04:23:22;9.70;;;7.60;;
21661;SDS011;10992;48.170;8.596;2023-05-07T04:25:49;10.43;;;7.18;;
21661;SDS011;10992;48.170;8.596;2023-05-07T04:28:24;7.95;;;7.05;;
21661;SDS011;10992;48.170;8.596;2023-05-07T04:30:51;9.02;;;7.20;;
21661;SDS011;10992;48.170;8.596;2023-05-07T04:33:19;7.22;;;6.45;;
21661;SDS011;10992;48.170;8.596;2023-05-07T04:35:48;7.47;;;6.22;;
21661;SDS011;10992;48.170;8.596;2023-05-07T04:38:15;7.95;;;6.05;;
21661;SDS011;10992;48.170;8.596;2023-05-07T04:40:43;8.18;;;5.97;;
21661;SDS011;10992;48.170;8.596;2023-05-07T04:43:14;5.82;;;5.22;;
21661;SDS011;10992;48.170;8.596;2023-05-07T04:45:47;6.30;;;5.55;;
21661;SDS011;10992;48.170;8.596;2023-05-07T04:48:16;5.95;;;4.93;;
21661;SDS011;10992;48.170;8.596;2023-05-07T04:50:49;6.55;;;5.30;;
21661;SDS011;10992;48.170;8.596;2023-05-07T04:53:17;8.02;;;5.45;;
21661;SDS011;10992;48.170;8.596;2023-05-07T04:55:46;6.82;;;5.35;;
21661;SDS011;10992;48.170;8.596;2023-05-07T04:58:14;5.13;;;4.63;;
21661;SDS011;10992;48.170;8.596;2023-05-07T05:00:44;7.28;;;4.63;;
21661;SDS011;10992;48.170;8.596;2023-05-07T05:03:11;5.50;;;4.15;;
21661;SDS011;10992;48.170;8.596;2023-05-07T05:05:39;5.90;;;5.30;;
21661;SDS011;10992;48.170;8.596;2023-05-07T05:08:07;5.70;;;4.40;;
21661;SDS011;10992;48.170;8.596;2023-05-07T05:10:37;5.00;;;4.03;;
21661;SDS011;10992;48.170;8.596;2023-05-07T05:13:05;5.82;;;4.05;;
21661;SDS011;10992;48.170;8.596;2023-05-07T05:15:34;4.97;;;3.70;;
21661;SDS011;10992;48.170;8.596;2023-05-07T05:18:02;5.00;;;4.03;;
21661;SDS011;10992;48.170;8.596;2023-05-07T05:20:29;7.70;;;3.45;;
21661;SDS011;10992;48.170;8.596;2023-05-07T05:22:57;5.25;;;3.15;;
21661;SDS011;10992;48.170;8.596;2023-05-07T05:25:24;7.32;;;2.70;;
21661;SDS011;10992;48.170;8.596;2023-05-07T05:27:51;6.45;;;3.20;;
21661;SDS011;10992;48.170;8.596;2023-05-07T05:30:18;3.80;;;3.10;;
21661;SDS011;10992;48.170;8.596;2023-05-07T05:32:47;5.07;;;2.78;;
21661;SDS011;10992;48.170;8.596;2023-05-07T05:35:13;3.78;;;2.40;;
21661;SDS011;10992;48.170;8.596;2023-05-07T05:37:42;3.33;;;2.22;;
21661;SDS011;10992;48.170;8.596;2023-05-07T05:40:09;3.40;;;2.20;;
21661;SDS011;10992;48.170;8.596;2023-05-07T05:42:37;4.95;;;2.65;;
21661;SDS011;10992;48.170;8.596;2023-05-07T05:45:06;3.17;;;2.03;;
21661;SDS011;10992;48.170;8.596;2023-05-07T05:47:33;4.70;;;2.30;;
21661;SDS011;10992;48.170;8.596;2023-05-07T05:50:01;6.97;;;2.63;;
21661;SDS011;10992;48.170;8.596;2023-05-07T05:52:28;4.03;;;2.78;;
21661;SDS011;10992;48.170;8.596;2023-05-07T05:54:56;4.00;;;2.42;;
21661;SDS011;10992;48.170;8.596;2023-05-07T05:57:24;4.50;;;2.60;;
21661;SDS011;10992;48.170;8.596;2023-05-07T05:59:54;3.53;;;2.28;;
21661;SDS011;10992;48.170;8.596;2023-05-07T06:02:23;3.83;;;2.70;;
21661;SDS011;10992;48.170;8.596;2023-05-07T06:04:52;4.07;;;2.90;;
21661;SDS011;10992;48.170;8.596;2023-05-07T06:07:21;6.18;;;3.05;;
21661;SDS011;10992;48.170;8.596;2023-05-07T06:09:49;3.58;;;3.08;;
21661;SDS011;10992;48.170;8.596;2023-05-07T06:12:16;3.45;;;2.95;;
21661;SDS011;10992;48.170;8.596;2023-05-07T06:14:43;3.55;;;3.17;;
21661;SDS011;10992;48.170;8.596;2023-05-07T06:17:13;6.88;;;3.22;;
21661;SDS011;10992;48.170;8.596;2023-05-07T06:19:40;3.67;;;2.78;;
21661;SDS011;10992;48.170;8.596;2023-05-07T06:22:08;4.03;;;3.10;;
21661;SDS011;10992;48.170;8.596;2023-05-07T06:24:35;5.35;;;3.38;;
21661;SDS011;10992;48.170;8.596;2023-05-07T06:27:04;6.07;;;3.22;;
21661;SDS011;10992;48.170;8.596;2023-05-07T06:29:31;3.47;;;3.17;;
21661;SDS011;10992;48.170;8.596;2023-05-07T06:32:08;4.03;;;3.50;;
21661;SDS011;10992;48.170;8.596;2023-05-07T06:34:39;4.80;;;3.50;;
21661;SDS011;10992;48.170;8.596;2023-05-07T06:37:06;4.47;;;3.78;;
21661;SDS011;10992;48.170;8.596;2023-05-07T06:39:46;4.40;;;3.45;;
21661;SDS011;10992;48.170;8.596;2023-05-07T06:42:13;6.05;;;3.20;;
21661;SDS011;10992;48.170;8.596;2023-05-07T06:44:42;7.38;;;3.63;;
21661;SDS011;10992;48.170;8.596;2023-05-07T06:47:12;4.55;;;3.22;;
21661;SDS011;10992;48.170;8.596;2023-05-07T06:49:42;5.70;;;3.50;;
21661;SDS011;10992;48.170;8.596;2023-05-07T06:52:16;5.15;;;3.80;;
21661;SDS011;10992;48.170;8.596;2023-05-07T06:54:44;3.85;;;3.30;;
21661;SDS011;10992;48.170;8.596;2023-05-07T06:57:14;4.35;;;3.75;;
21661;SDS011;10992;48.170;8.596;2023-05-07T06:59:41;8.40;;;4.00;;
21661;SDS011;10992;48.170;8.596;2023-05-07T07:02:11;6.70;;;4.10;;
21661;SDS011;10992;48.170;8.596;2023-05-07T07:04:38;5.18;;;3.38;;
21661;SDS011;10992;48.170;8.596;2023-05-07T07:07:09;3.97;;;3.30;;
21661;SDS011;10992;48.170;8.596;2023-05-07T07:09:36;3.80;;;3.00;;
21661;SDS011;10992;48.170;8.596;2023-05-07T07:12:04;4.30;;;3.35;;
21661;SDS011;10992;48.170;8.596;2023-05-07T07:14:35;3.38;;;2.50;;
21661;SDS011;10992;48.170;8.596;2023-05-07T07:17:02;6.57;;;2.80;;
21661;SDS011;10992;48.170;8.596;2023-05-07T07:19:32;4.90;;;3.33;;
21661;SDS011;10992;48.170;8.596;2023-05-07T07:22:00;2.88;;;2.53;;
21661;SDS011;10992;48.170;8.596;2023-05-07T07:24:28;4.07;;;3.03;;
21661;SDS011;10992;48.170;8.596;2023-05-07T07:27:01;3.67;;;3.00;;
21661;SDS011;10992;48.170;8.596;2023-05-07T07:29:29;2.95;;;2.60;;
21661;SDS011;10992;48.170;8.596;2023-05-07T07:31:56;5.22;;;3.10;;
21661;SDS011;10992;48.170;8.596;2023-05-07T07:34:24;5.65;;;2.90;;
21661;SDS011;10992;48.170;8.596;2023-05-07T07:36:51;4.80;;;2.65;;
21661;SDS011;10992;48.170;8.596;2023-05-07T07:39:18;5.55;;;2.70;;
21661;SDS011;10992;48.170;8.596;2023-05-07T07:41:49;3.47;;;2.67;;
21661;SDS011;10992;48.170;8.596;2023-05-07T07:44:17;4.85;;;2.25;;
21661;SDS011;10992;48.170;8.596;2023-05-07T07:46:49;3.67;;;2.50;;
21661;SDS011;10992;48.170;8.596;2023-05-07T07:49:18;3.03;;;1.95;;
21661;SDS011;10992;48.170;8.596;2023-05-07T07:51:46;3.47;;;2.45;;
21661;SDS011;10992;48.170;8.596;2023-05-07T07:54:14;3.42;;;2.20;;
21661;SDS011;10992;48.170;8.596;2023-05-07T07:56:42;3.28;;;2.22;;
21661;SDS011;10992;48.170;8.596;2023-05-07T07:59:13;2.83;;;1.90;;
21661;SDS011;10992;48.170;8.596;2023-05-07T08:01:44;2.90;;;2.17;;
21661;SDS011;10992;48.170;8.596;2023-05-07T08:04:11;4.32;;;2.42;;
21661;SDS011;10992;48.170;8.596;2023-05-07T08:06:41;3.15;;;1.90;;
21661;SDS011;10992;48.170;8.596;2023-05-07T08:09:09;5.03;;;2.22;;
21661;SDS011;10992;48.170;8.596;2023-05-07T08:11:38;4.30;;;2.08;;
21661;SDS011;10992;48.170;8.596;2023-05-07T08:14:06;3.20;;;1.67;;
21661;SDS011;10992;48.170;8.596;2023-05-07T08:16:33;1.98;;;1.48;;
21661;SDS011;10992;48.170;8.596;2023-05-07T08:19:01;3.65;;;1.40;;
21661;SDS011;10992;48.170;8.596;2023-05-07T08:21:28;3.97;;;2.00;;
21661;SDS011;10992;48.170;8.596;2023-05-07T08:23:54;3.42;;;1.60;;
21661;SDS011;10992;48.170;8.596;2023-05-07T08:26:22;2.58;;;1.50;;
21661;SDS011;10992;48.170;8.596;2023-05-07T08:28:49;3.45;;;1.75;;
21661;SDS011;10992;48.170;8.596;2023-05-07T08:31:18;3.60;;;1.40;;
21661;SDS011;10992;48.170;8.596;2023-05-07T08:33:46;2.92;;;1.70;;
21661;SDS011;10992;48.170;8.596;2023-05-07T08:36:13;3.40;;;1.77;;
21661;SDS011;10992;48.170;8.596;2023-05-07T08:38:39;1.88;;;1.50;;
21661;SDS011;10992;48.170;8.596;2023-05-07T08:41:12;2.67;;;1.50;;
21661;SDS011;10992;48.170;8.596;2023-05-07T08:43:41;2.33;;;1.67;;
21661;SDS011;10992;48.170;8.596;2023-05-07T08:46:15;2.60;;;1.65;;
21661;SDS011;10992;48.170;8.596;2023-05-07T08:48:49;2.55;;;1.70;;
21661;SDS011;10992;48.170;8.596;2023-05-07T08:51:18;3.17;;;1.83;;
21661;SDS011;10992;48.170;8.596;2023-05-07T08:53:48;4.63;;;2.03;;
21661;SDS011;10992;48.170;8.596;2023-05-07T08:56:22;4.03;;;1.98;;
21661;SDS011;10992;48.170;8.596;2023-05-07T08:58:51;4.15;;;2.28;;
21661;SDS011;10992;48.170;8.596;2023-05-07T09:01:23;3.78;;;2.20;;
21661;SDS011;10992;48.170;8.596;2023-05-07T09:03:51;3.67;;;1.73;;
21661;SDS011;10992;48.170;8.596;2023-05-07T09:06:21;4.95;;;1.60;;
21661;SDS011;10992;48.170;8.596;2023-05-07T09:08:51;2.50;;;1.80;;
21661;SDS011;10992;48.170;8.596;2023-05-07T09:11:22;2.42;;;1.55;;
21661;SDS011;10992;48.170;8.596;2023-05-07T09:13:55;2.47;;;1.50;;
21661;SDS011;10992;48.170;8.596;2023-05-07T09:16:24;2.65;;;1.35;;
21661;SDS011;10992;48.170;8.596;2023-05-07T09:18:53;2.78;;;1.60;;
21661;SDS011;10992;48.170;8.596;2023-05-07T09:21:22;2.33;;;1.73;;
21661;SDS011;10992;48.170;8.596;2023-05-07T09:23:52;2.85;;;1.33;;
21661;SDS011;10992;48.170;8.596;2023-05-07T09:26:25;3.88;;;1.30;;
21661;SDS011;10992;48.170;8.596;2023-05-07T09:28:54;2.63;;;1.42;;
21661;SDS011;10992;48.170;8.596;2023-05-07T09:31:21;2.20;;;1.13;;
21661;SDS011;10992;48.170;8.596;2023-05-07T09:33:50;2.35;;;1.42;;
21661;SDS011;10992;48.170;8.596;2023-05-07T09:36:19;4.30;;;1.02;;
21661;SDS011;10992;48.170;8.596;2023-05-07T09:38:47;4.05;;;1.00;;
21661;SDS011;10992;48.170;8.596;2023-05-07T09:41:18;2.03;;;0.90;;
21661;SDS011;10992;48.170;8.596;2023-05-07T09:43:54;3.15;;;1.00;;
21661;SDS011;10992;48.170;8.596;2023-05-07T09:46:29;1.02;;;0.93;;
21661;SDS011;10992;48.170;8.596;2023-05-07T09:49:02;1.05;;;0.82;;
21661;SDS011;10992;48.170;8.596;2023-05-07T09:51:35;2.28;;;1.25;;
21661;SDS011;10992;48.170;8.596;2023-05-07T09:54:12;3.70;;;1.33;;
21661;SDS011;10992;48.170;8.596;2023-05-07T09:56:42;4.00;;;1.30;;
21661;SDS011;10992;48.170;8.596;2023-05-07T09:59:12;1.08;;;0.98;;
21661;SDS011;10992;48.170;8.596;2023-05-07T10:01:42;4.55;;;1.42;;
21661;SDS011;10992;48.170;8.596;2023-05-07T10:04:12;2.35;;;1.33;;
21661;SDS011;10992;48.170;8.596;2023-05-07T10:06:41;1.48;;;1.10;;
21661;SDS011;10992;48.170;8.596;2023-05-07T10:09:09;2.28;;;1.10;;
21661;SDS011;10992;48.170;8.596;2023-05-07T10:11:37;1.65;;;1.00;;
21661;SDS011;10992;48.170;8.596;2023-05-07T10:14:05;1.23;;;1.00;;
21661;SDS011;10992;48.170;8.596;2023-05-07T10:16:34;3.25;;;1.27;;
21661;SDS011;10992;48.170;8.596;2023-05-07T10:19:08;2.03;;;1.40;;
21661;SDS011;10992;48.170;8.596;2023-05-07T10:21:44;1.85;;;1.40;;
21661;SDS011;10992;48.170;8.596;2023-05-07T10:24:25;2.53;;;1.23;;
21661;SDS011;10992;48.170;8.596;2023-05-07T10:26:56;1.02;;;0.90;;
21661;SDS011;10992;48.170;8.596;2023-05-07T10:29:39;1.65;;;1.38;;
21661;SDS011;10992;48.170;8.596;2023-05-07T10:35:26;1.60;;;1.23;;
21661;SDS011;10992;48.170;8.596;2023-05-07T10:37:59;1.65;;;1.20;;
21661;SDS011;10992;48.170;8.596;2023-05-07T10:40:30;2.10;;;1.40;;
21661;SDS011;10992;48.170;8.596;2023-05-07T10:43:01;4.07;;;1.23;;
21661;SDS011;10992;48.170;8.596;2023-05-07T10:51:39;3.05;;;1.77;;
21661;SDS011;10992;48.170;8.596;2023-05-07T10:54:21;2.25;;;1.35;;
21661;SDS011;10992;48.170;8.596;2023-05-07T10:57:32;4.30;;;1.42;;
21661;SDS011;10992;48.170;8.596;2023-05-07T11:03:07;2.42;;;1.58;;
21661;SDS011;10992;48.170;8.596;2023-05-07T11:05:47;2.67;;;2.03;;
21661;SDS011;10992;48.170;8.596;2023-05-07T11:08:24;3.75;;;2.35;;
21661;SDS011;10992;48.170;8.596;2023-05-07T11:11:03;3.80;;;2.08;;
21661;SDS011;10992;48.170;8.596;2023-05-07T11:13:43;2.22;;;1.73;;
21661;SDS011;10992;48.170;8.596;2023-05-07T11:16:34;2.90;;;1.95;;
21661;SDS011;10992;48.170;8.596;2023-05-07T11:19:12;1.92;;;1.83;;
21661;SDS011;10992;48.170;8.596;2023-05-07T11:21:43;3.10;;;1.70;;
21661;SDS011;10992;48.170;8.596;2023-05-07T11:24:24;3.35;;;2.80;;
21661;SDS011;10992;48.170;8.596;2023-05-07T11:27:01;3.53;;;2.53;;
21661;SDS011;10992;48.170;8.596;2023-05-07T11:29:30;4.05;;;2.67;;
21661;SDS011;10992;48.170;8.596;2023-05-07T11:32:03;5.68;;;3.05;;
21661;SDS011;10992;48.170;8.596;2023-05-07T11:34:38;5.20;;;2.33;;
21661;SDS011;10992;48.170;8.596;2023-05-07T11:37:05;3.75;;;2.78;;
21661;SDS011;10992;48.170;8.596;2023-05-07T11:39:40;3.95;;;2.42;;
21661;SDS011;10992;48.170;8.596;2023-05-07T11:42:07;7.18;;;3.17;;
21661;SDS011;10992;48.170;8.596;2023-05-07T11:44:55;3.83;;;2.88;;
21661;SDS011;10992;48.170;8.596;2023-05-07T11:47:22;3.70;;;3.30;;
21661;SDS011;10992;48.170;8.596;2023-05-07T11:49:53;6.35;;;3.35;;
21661;SDS011;10992;48.170;8.596;2023-05-07T11:52:22;5.07;;;3.03;;
21661;SDS011;10992;48.170;8.596;2023-05-07T11:54:53;4.80;;;3.33;;
21661;SDS011;10992;48.170;8.596;2023-05-07T11:57:24;4.47;;;3.58;;
21661;SDS011;10992;48.170;8.596;2023-05-07T11:59:58;5.68;;;2.60;;
21661;SDS011;10992;48.170;8.596;2023-05-07T12:02:26;6.00;;;2.53;;
21661;SDS011;10992;48.170;8.596;2023-05-07T12:04:53;3.03;;;2.55;;
21661;SDS011;10992;48.170;8.596;2023-05-07T12:07:21;4.95;;;1.73;;
21661;SDS011;10992;48.170;8.596;2023-05-07T12:09:51;3.88;;;2.95;;
21661;SDS011;10992;48.170;8.596;2023-05-07T12:12:18;2.85;;;1.65;;
21661;SDS011;10992;48.170;8.596;2023-05-07T12:14:45;4.50;;;2.47;;
21661;SDS011;10992;48.170;8.596;2023-05-07T12:17:13;6.55;;;3.30;;
21661;SDS011;10992;48.170;8.596;2023-05-07T12:19:42;6.97;;;4.22;;
21661;SDS011;10992;48.170;8.596;2023-05-07T12:22:11;3.78;;;3.15;;
21661;SDS011;10992;48.170;8.596;2023-05-07T12:24:45;4.90;;;3.15;;
21661;SDS011;10992;48.170;8.596;2023-05-07T12:27:22;3.42;;;2.58;;
21661;SDS011;10992;48.170;8.596;2023-05-07T12:29:50;2.40;;;1.90;;
21661;SDS011;10992;48.170;8.596;2023-05-07T12:32:17;3.78;;;1.83;;
21661;SDS011;10992;48.170;8.596;2023-05-07T12:34:46;3.17;;;1.60;;
21661;SDS011;10992;48.170;8.596;2023-05-07T12:37:23;2.78;;;1.67;;
21661;SDS011;10992;48.170;8.596;2023-05-07T12:40:10;2.70;;;1.55;;
21661;SDS011;10992;48.170;8.596;2023-05-07T12:42:38;4.45;;;1.40;;
21661;SDS011;10992;48.170;8.596;2023-05-07T12:45:09;2.22;;;1.63;;
21661;SDS011;10992;48.170;8.596;2023-05-07T12:47:37;2.55;;;1.38;;
21661;SDS011;10992;48.170;8.596;2023-05-07T12:50:05;5.18;;;2.95;;
21661;SDS011;10992;48.170;8.596;2023-05-07T12:52:33;4.03;;;2.88;;
21661;SDS011;10992;48.170;8.596;2023-05-07T12:55:07;4.63;;;2.45;;
21661;SDS011;10992;48.170;8.596;2023-05-07T12:57:38;8.00;;;3.13;;
21661;SDS011;10992;48.170;8.596;2023-05-07T13:00:07;12.30;;;2.65;;
21661;SDS011;10992;48.170;8.596;2023-05-07T13:02:38;4.07;;;2.53;;
21661;SDS011;10992;48.170;8.596;2023-05-07T13:05:07;3.25;;;2.63;;
21661;SDS011;10992;48.170;8.596;2023-05-07T13:07:35;3.65;;;2.70;;
21661;SDS011;10992;48.170;8.596;2023-05-07T13:10:03;7.25;;;3.22;;
21661;SDS011;10992;48.170;8.596;2023-05-07T13:12:31;4.63;;;3.40;;
21661;SDS011;10992;48.170;8.596;2023-05-07T13:14:57;5.90;;;3.55;;
21661;SDS011;10992;48.170;8.596;2023-05-07T13:17:25;5.65;;;3.90;;
21661;SDS011;10992;48.170;8.596;2023-05-07T13:19:52;6.32;;;3.78;;
21661;SDS011;10992;48.170;8.596;2023-05-07T13:22:19;5.72;;;3.83;;
21661;SDS011;10992;48.170;8.596;2023-05-07T13:24:46;7.90;;;4.03;;
21661;SDS011;10992;48.170;8.596;2023-05-07T13:27:13;6.45;;;3.72;;
21661;SDS011;10992;48.170;8.596;2023-05-07T13:29:40;6.93;;;3.33;;
21661;SDS011;10992;48.170;8.596;2023-05-07T13:32:07;5.05;;;3.03;;
21661;SDS011;10992;48.170;8.596;2023-05-07T13:34:34;8.35;;;2.88;;
21661;SDS011;10992;48.170;8.596;2023-05-07T13:37:01;4.53;;;2.85;;
21661;SDS011;10992;48.170;8.596;2023-05-07T13:39:28;5.45;;;2.45;;
21661;SDS011;10992;48.170;8.596;2023-05-07T13:41:55;6.55;;;2.80;;
21661;SDS011;10992;48.170;8.596;2023-05-07T13:44:22;6.22;;;2.67;;
21661;SDS011;10992;48.170;8.596;2023-05-07T13:46:49;4.22;;;1.73;;
21661;SDS011;10992;48.170;8.596;2023-05-07T13:49:16;3.55;;;1.60;;
21661;SDS011;10992;48.170;8.596;2023-05-07T13:51:43;3.75;;;1.80;;
21661;SDS011;10992;48.170;8.596;2023-05-07T13:54:10;2.78;;;1.45;;
21661;SDS011;10992;48.170;8.596;2023-05-07T13:56:37;1.88;;;1.20;;
21661;SDS011;10992;48.170;8.596;2023-05-07T13:59:04;2.15;;;1.38;;
21661;SDS011;10992;48.170;8.596;2023-05-07T14:01:31;1.88;;;1.20;;
21661;SDS011;10992;48.170;8.596;2023-05-07T14:03:58;2.83;;;1.52;;
21661;SDS011;10992;48.170;8.596;2023-05-07T14:06:25;3.40;;;1.45;;
21661;SDS011;10992;48.170;8.596;2023-05-07T14:08:52;3.10;;;1.52;;
21661;SDS011;10992;48.170;8.596;2023-05-07T14:11:19;2.80;;;1.00;;
21661;SDS011;10992;48.170;8.596;2023-05-07T14:13:47;3.00;;;1.10;;
21661;SDS011;10992;48.170;8.596;2023-05-07T14:16:14;3.10;;;1.02;;
21661;SDS011;10992;48.170;8.596;2023-05-07T14:18:41;1.35;;;0.80;;
21661;SDS011;10992;48.170;8.596;2023-05-07T14:21:08;1.80;;;0.90;;
21661;SDS011;10992;48.170;8.596;2023-05-07T14:23:36;1.80;;;1.00;;
21661;SDS011;10992;48.170;8.596;2023-05-07T14:26:03;0.88;;;0.70;;
21661;SDS011;10992;48.170;8.596;2023-05-07T14:28:30;2.03;;;1.00;;
21661;SDS011;10992;48.170;8.596;2023-05-07T14:30:57;2.13;;;1.05;;
21661;SDS011;10992;48.170;8.596;2023-05-07T14:33:24;1.15;;;0.88;;
21661;SDS011;10992;48.170;8.596;2023-05-07T14:35:51;3.03;;;1.30;;
21661;SDS011;10992;48.170;8.596;2023-05-07T14:38:18;1.23;;;0.80;;
21661;SDS011;10992;48.170;8.596;2023-05-07T14:40:46;4.65;;;1.30;;
21661;SDS011;10992;48.170;8.596;2023-05-07T14:43:13;3.15;;;1.08;;
21661;SDS011;10992;48.170;8.596;2023-05-07T14:45:40;1.77;;;1.00;;
21661;SDS011;10992;48.170;8.596;2023-05-07T14:48:07;2.13;;;0.93;;
21661;SDS011;10992;48.170;8.596;2023-05-07T14:50:35;1.65;;;1.13;;
21661;SDS011;10992;48.170;8.596;2023-05-07T14:53:02;1.27;;;1.17;;
21661;SDS011;10992;48.170;8.596;2023-05-07T14:55:30;1.95;;;1.10;;
21661;SDS011;10992;48.170;8.596;2023-05-07T14:58:00;3.00;;;0.80;;
21661;SDS011;10992;48.170;8.596;2023-05-07T15:00:27;1.85;;;0.90;;
21661;SDS011;10992;48.170;8.596;2023-05-07T15:02:55;2.05;;;1.02;;
21661;SDS011;10992;48.170;8.596;2023-05-07T15:05:28;3.03;;;0.90;;
21661;SDS011;10992;48.170;8.596;2023-05-07T15:07:55;3.75;;;1.17;;
21661;SDS011;10992;48.170;8.596;2023-05-07T15:10:22;2.08;;;1.23;;
21661;SDS011;10992;48.170;8.596;2023-05-07T15:12:49;1.45;;;0.80;;